Time;durP1;ratioP1;P1;durP2;ratioP2;P2;SDS_P1;SDS_P2;PMS_P1;PMS_P2;Temp;Humidity;BMP_temperature;BMP_pressure;BME280_temperature;BME280_humidity;BME280_pressure;Samples;Min_cycle;Max_cycle;Signal;HPM_P1;HPM_P2
2022/12/12 00:01:11;;;;;;;0.00;0.00;;;;;;;0.67;81.79;99599.22;6159862;23;20123;-75
2022/12/12 00:03:37;;;;;;;0.00;0.00;;;;;;;0.69;81.36;99589.91;6179403;23;20008;-76
2022/12/12 00:06:03;;;;;;;0.00;0.00;;;;;;;0.72;81.97;99591.31;6208129;23;20005;-77
2022/12/12 00:08:29;;;;;;;0.10;0.10;;;;;;;0.75;82.08;99593.56;6204134;23;20764;-76
2022/12/12 00:10:55;;;;;;;0.00;0.00;;;;;;;0.64;82.09;99578.13;6208633;23;20005;-77
2022/12/12 00:13:20;;;;;;;0.00;0.00;;;;;;;0.72;81.99;99599.41;6155301;23;20727;-76
2022/12/12 00:15:46;;;;;;;0.00;0.00;;;;;;;0.75;82.13;99598.94;6180675;23;20471;-77
2022/12/12 00:18:11;;;;;;;0.00;0.00;;;;;;;0.63;82.26;99576.53;6183647;23;20420;-76
2022/12/12 00:20:46;;;;;;;0.10;0.10;;;;;;;0.65;81.63;99587.88;6204986;23;20008;-75
2022/12/12 00:23:12;;;;;;;0.00;0.00;;;;;;;0.68;82.09;99600.88;6183227;23;20087;-75
2022/12/12 00:25:37;;;;;;;0.00;0.00;;;;;;;0.66;82.32;99600.28;6153836;23;20025;-76
2022/12/12 00:28:03;;;;;;;0.00;0.00;;;;;;;0.71;81.80;99600.44;6158158;23;20623;-76
2022/12/12 00:30:28;;;;;;;0.00;0.00;;;;;;;0.72;81.71;99596.72;6127827;23;20032;-76
2022/12/12 00:32:56;;;;;;;0.00;0.00;;;;;;;0.71;81.67;99603.13;6134898;23;20009;-76
2022/12/12 00:35:21;;;;;;;0.10;0.10;;;;;;;0.69;81.99;99600.66;6128287;23;20009;-76
2022/12/12 00:37:47;;;;;;;0.00;0.00;;;;;;;0.66;81.87;99601.09;6130964;23;20035;-75
2022/12/12 00:40:12;;;;;;;0.00;0.00;;;;;;;0.71;82.04;99603.13;6157861;23;20462;-75
2022/12/12 00:42:38;;;;;;;0.00;0.00;;;;;;;0.72;81.52;99603.97;6129340;23;20009;-77
2022/12/12 00:45:03;;;;;;;0.00;0.00;;;;;;;0.67;82.45;99596.53;6183473;23;20004;-77
2022/12/12 00:47:29;;;;;;;0.00;0.00;;;;;;;0.68;81.67;99598.19;6128696;23;20092;-75
2022/12/12 00:49:54;;;;;;;0.00;0.00;;;;;;;0.70;81.87;99601.47;6157573;23;20005;-77
2022/12/12 00:52:20;;;;;;;0.00;0.00;;;;;;;0.70;82.27;99596.09;6134443;23;20008;-76
2022/12/12 00:54:45;;;;;;;0.00;0.00;;;;;;;0.70;81.75;99598.78;6178370;23;20420;-76
2022/12/12 00:57:11;;;;;;;0.10;0.10;;;;;;;0.71;82.22;99600.44;6160191;23;20024;-76
2022/12/12 00:59:36;;;;;;;0.00;0.00;;;;;;;0.67;81.68;99596.53;6202780;23;20099;-76
2022/12/12 01:02:02;;;;;;;0.00;0.00;;;;;;;0.59;82.32;99584.19;6182962;23;20725;-76
2022/12/12 01:04:28;;;;;;;0.00;0.00;;;;;;;0.62;81.94;99588.31;6180626;23;20005;-76
2022/12/12 01:06:53;;;;;;;0.00;0.00;;;;;;;0.64;81.90;99594.28;6179329;23;20016;-76
2022/12/12 01:09:19;;;;;;;0.03;0.03;;;;;;;0.77;82.42;99612.19;6210122;23;20008;-76
2022/12/12 01:11:44;;;;;;;0.00;0.00;;;;;;;0.70;81.34;99593.41;6200539;23;20048;-76
2022/12/12 01:14:09;;;;;;;0.00;0.00;;;;;;;0.73;81.71;99610.97;6184467;23;20031;-77
2022/12/12 01:16:35;;;;;;;0.00;0.00;;;;;;;0.67;82.10;99608.13;6157220;23;20008;-75
2022/12/12 01:19:01;;;;;;;0.00;0.00;;;;;;;0.61;81.42;99597.44;6177141;23;20008;-76
2022/12/12 01:21:26;;;;;;;0.10;0.10;;;;;;;0.60;81.75;99585.00;6210890;23;20008;-77
2022/12/12 01:23:52;;;;;;;0.00;0.00;;;;;;;0.67;82.22;99612.69;6176943;23;20016;-75
2022/12/12 01:26:20;;;;;;;0.00;0.00;;;;;;;0.61;81.53;99603.63;6210110;23;20047;-75
2022/12/12 01:28:46;;;;;;;0.00;0.00;;;;;;;0.56;82.46;99595.41;6177482;23;20027;-76
2022/12/12 01:31:12;;;;;;;0.10;0.10;;;;;;;0.61;81.86;99613.56;6180990;23;20417;-76
2022/12/12 01:33:38;;;;;;;0.00;0.00;;;;;;;0.60;82.55;99606.53;6207513;23;20036;-76
2022/12/12 01:36:04;;;;;;;0.00;0.00;;;;;;;0.59;82.40;99610.28;6179591;23;20005;-76
2022/12/12 01:38:30;;;;;;;0.00;0.00;;;;;;;0.62;82.33;99604.47;6180418;23;20454;-76
2022/12/12 01:40:55;;;;;;;0.00;0.00;;;;;;;0.67;82.08;99615.38;6150236;23;20009;-75
2022/12/12 01:43:22;;;;;;;0.00;0.00;;;;;;;0.67;81.85;99615.38;6181706;23;20015;-76
2022/12/12 01:46:01;;;;;;;0.00;0.00;;;;;;;0.65;82.80;99614.78;6177420;23;19996;-76
2022/12/12 01:48:41;;;;;;;0.00;0.00;;;;;;;0.60;82.51;99611.91;6207684;23;20336;-76
2022/12/12 01:51:17;;;;;;;0.00;0.00;;;;;;;0.52;82.18;99608.44;6176858;23;20008;-76
2022/12/12 01:53:44;;;;;;;0.10;0.10;;;;;;;0.47;82.18;99607.50;6209058;23;19997;-77
2022/12/12 01:56:13;;;;;;;0.00;0.00;;;;;;;0.50;82.47;99610.56;6151885;23;20009;-77
2022/12/12 01:58:42;;;;;;;0.10;0.10;;;;;;;0.52;82.65;99611.16;6158231;23;20514;-76
2022/12/12 02:01:08;;;;;;;0.10;0.10;;;;;;;0.52;82.94;99610.34;6128296;23;20008;-77
2022/12/12 02:03:34;;;;;;;0.00;0.00;;;;;;;0.54;82.71;99624.41;6147753;23;20012;-76
2022/12/12 02:06:06;;;;;;;0.00;0.00;;;;;;;0.51;82.63;99608.69;6177944;23;19997;-76
2022/12/12 02:08:32;;;;;;;0.00;0.00;;;;;;;0.51;83.12;99620.28;6194923;23;20328;-76
2022/12/12 02:10:57;;;;;;;0.00;0.00;;;;;;;0.44;82.78;99615.97;6129598;23;20009;-76
2022/12/12 02:13:30;;;;;;;0.00;0.00;;;;;;;0.47;82.47;99611.00;6124711;23;20009;-75
2022/12/12 02:16:27;;;;;;;0.10;0.10;;;;;;;0.47;82.51;99621.75;6152413;23;20063;-75
2022/12/12 02:19:13;;;;;;;0.00;0.00;;;;;;;0.45;83.08;99625.69;6170937;23;20383;-77
2022/12/12 02:21:42;;;;;;;0.08;0.08;;;;;;;0.43;82.52;99623.22;6204676;23;20008;-76
2022/12/12 02:24:19;;;;;;;0.10;0.10;;;;;;;0.34;83.03;99628.06;6173871;23;20004;-76
2022/12/12 02:27:09;;;;;;;0.08;0.08;;;;;;;0.30;82.81;99634.09;6200811;23;20348;-76
2022/12/12 02:30:02;;;;;;;0.00;0.00;;;;;;;0.26;82.36;99635.56;6178427;23;20070;-75
2022/12/12 02:32:52;;;;;;;0.10;0.10;;;;;;;0.24;82.39;99634.97;6172756;23;20008;-76
2022/12/12 02:35:31;;;;;;;0.00;0.00;;;;;;;0.21;81.95;99636.22;6174939;23;20016;-77
2022/12/12 02:38:28;;;;;;;0.00;0.00;;;;;;;0.14;82.38;99628.19;6156651;23;20048;-76
2022/12/12 02:41:22;;;;;;;0.00;0.00;;;;;;;0.04;83.21;99635.09;6200384;23;20009;-76
2022/12/12 02:44:07;;;;;;;0.10;0.10;;;;;;;-0.05;83.13;99627.28;6150423;23;20428;-75
2022/12/12 02:46:32;;;;;;;;;;;;;;;-0.05;83.94;99639.91;6175342;23;20048;-76
2022/12/12 02:49:13;;;;;;;0.00;0.00;;;;;;;-0.08;82.92;99643.03;6178163;23;19908;-77
2022/12/12 02:51:39;;;;;;;0.10;0.10;;;;;;;-0.23;83.30;99619.94;6196030;23;20435;-76
2022/12/12 02:54:15;;;;;;;0.10;0.10;;;;;;;-0.10;83.14;99640.56;6177235;23;20017;-76
2022/12/12 02:56:46;;;;;;;0.00;0.00;;;;;;;-0.11;84.12;99630.84;6146723;23;20084;-75
2022/12/12 02:59:19;;;;;;;0.00;0.00;;;;;;;-0.16;83.81;99624.44;6202213;23;20028;-75
2022/12/12 03:02:15;;;;;;;0.10;0.10;;;;;;;-0.19;84.11;99618.47;6198314;23;20001;-79
2022/12/12 03:08:36;;;;;;;0.00;0.00;;;;;;;-0.24;83.47;99596.78;6179014;23;20043;-82
2022/12/12 03:11:07;;;;;;;0.10;0.10;;;;;;;-0.42;83.58;99594.00;6178935;23;20001;-79
2022/12/12 03:13:45;;;;;;;0.00;0.00;;;;;;;-0.42;84.27;99607.44;6152232;23;20001;-80
2022/12/12 03:16:34;;;;;;;0.10;0.10;;;;;;;-0.45;84.52;99616.75;6178330;23;19997;-81
2022/12/12 03:19:20;;;;;;;0.00;0.00;;;;;;;-0.50;83.95;99618.41;6151667;23;20063;-79
2022/12/12 03:21:50;;;;;;;0.00;0.00;;;;;;;-0.54;83.91;99613.47;6203391;23;20005;-80
2022/12/12 03:24:25;;;;;;;0.00;0.00;;;;;;;-0.50;84.39;99623.78;6150474;23;20086;-81
2022/12/12 03:27:17;;;;;;;0.00;0.00;;;;;;;-0.49;84.09;99620.06;6153035;23;20005;-81
2022/12/12 03:29:52;;;;;;;0.00;0.00;;;;;;;-0.51;83.91;99617.59;6153802;23;20036;-82
2022/12/12 03:32:23;;;;;;;0.00;0.00;;;;;;;-0.47;84.13;99620.69;6149900;23;20078;-80
2022/12/12 03:34:55;;;;;;;0.00;0.00;;;;;;;-0.47;83.61;99612.63;6150720;23;19997;-80
2022/12/12 03:37:46;;;;;;;0.00;0.00;;;;;;;-0.46;83.62;99614.28;6180348;23;20008;-78
2022/12/12 03:40:18;;;;;;;0.10;0.10;;;;;;;-0.47;84.04;99608.06;6204233;23;20471;-79
2022/12/12 03:43:07;;;;;;;0.00;0.00;;;;;;;-0.38;84.05;99632.81;6148841;23;20005;-78
2022/12/12 03:45:39;;;;;;;0.10;0.10;;;;;;;-0.40;83.63;99619.59;6204032;23;20011;-79
2022/12/12 03:48:23;;;;;;;0.00;0.00;;;;;;;-0.29;83.24;99630.72;6197267;23;20055;-79
2022/12/12 03:51:13;;;;;;;0.00;0.00;;;;;;;-0.26;84.35;99624.94;6181899;23;20004;-80
2022/12/12 03:53:51;;;;;;;0.00;0.00;;;;;;;-0.29;84.02;99615.44;6153132;23;20009;-80
2022/12/12 03:56:36;;;;;;;0.00;0.00;;;;;;;-0.25;83.63;99616.66;6202666;23;20005;-81
2022/12/12 03:59:06;;;;;;;;;;;;;;;-0.25;83.70;99613.97;6182725;23;20070;-81
2022/12/12 04:01:43;;;;;;;0.00;0.00;;;;;;;-0.25;84.46;99621.19;6179670;23;20306;-80
2022/12/12 04:04:16;;;;;;;0.00;0.00;;;;;;;-0.31;84.37;99608.63;6185304;23;20063;-80
2022/12/12 04:06:51;;;;;;;0.00;0.00;;;;;;;-0.25;84.31;99619.34;6180036;23;20577;-78
2022/12/12 04:15:08;;;;;;;0.00;0.00;;;;;;;-0.23;83.46;99619.13;6214625;23;20561;-79
2022/12/12 04:17:59;;;;;;;0.10;0.10;;;;;;;-0.36;83.85;99614.63;6194989;23;20008;-79
2022/12/12 04:23:28;;;;;;;0.10;0.10;;;;;;;-0.27;84.09;99623.28;6212239;23;20019;-80
2022/12/12 04:26:44;;;;;;;0.00;0.00;;;;;;;-0.26;83.78;99630.31;6187582;23;20446;-82
2022/12/12 04:29:01;;;;;;;0.08;0.08;;;;;;;-0.28;83.75;99619.75;6190607;23;20000;-83
2022/12/12 04:31:30;;;;;;;0.10;0.10;;;;;;;-0.26;84.35;99631.13;6205761;23;20435;-82
2022/12/12 04:34:05;;;;;;;0.00;0.00;;;;;;;-0.31;83.52;99619.38;6200848;23;20764;-83
2022/12/12 04:36:32;;;;;;;0.10;0.10;;;;;;;-0.27;84.35;99632.16;6206848;23;20040;-81
2022/12/12 04:38:59;;;;;;;0.00;0.00;;;;;;;-0.38;83.41;99611.31;6208122;23;20040;-81
2022/12/12 04:41:32;;;;;;;0.00;0.00;;;;;;;-0.31;83.73;99633.63;6215478;23;20039;-79
2022/12/12 04:44:00;;;;;;;0.00;0.00;;;;;;;-0.32;83.67;99632.00;6213277;23;20064;-79
2022/12/12 04:46:30;;;;;;;0.00;0.00;;;;;;;-0.34;83.79;99627.84;6205626;23;20741;-80
2022/12/12 04:49:06;;;;;;;0.00;0.00;;;;;;;-0.37;84.05;99626.41;6210098;23;20015;-79
2022/12/12 04:51:36;;;;;;;0.00;0.00;;;;;;;-0.42;83.90;99612.81;6187981;23;20075;-79
2022/12/12 04:54:08;;;;;;;0.00;0.00;;;;;;;-0.37;84.67;99612.97;6189889;23;20449;-78
2022/12/12 04:56:35;;;;;;;0.00;0.00;;;;;;;-0.27;84.98;99623.28;6188530;23;20008;-79
2022/12/12 04:59:02;;;;;;;0.00;0.00;;;;;;;-0.24;83.48;99617.47;6163127;23;20020;-78
2022/12/12 05:01:48;;;;;;;0.00;0.00;;;;;;;-0.22;83.42;99610.84;6197616;23;20009;-79
2022/12/12 05:04:23;;;;;;;0.00;0.00;;;;;;;-0.23;83.20;99611.88;6199960;23;20011;-79
2022/12/12 05:06:55;;;;;;;0.00;0.00;;;;;;;-0.27;83.49;99610.66;6196097;23;20047;-78
2022/12/12 05:09:20;;;;;;;0.00;0.00;;;;;;;-0.23;83.04;99619.94;6199151;23;20000;-78
2022/12/12 05:11:55;;;;;;;0.00;0.00;;;;;;;-0.24;83.56;99618.28;6149833;23;20011;-79
2022/12/12 05:14:32;;;;;;;;;;;;;;;-0.21;83.93;99625.91;6163145;23;20049;-78
2022/12/12 05:17:17;;;;;;;;;;;;;;;;;;;;;
2022/12/12 05:19:52;;;;;;;0.00;0.00;;;;;;;-0.41;83.93;99598.31;6223606;23;20028;-78
2022/12/12 05:22:17;;;;;;;0.00;0.00;;;;;;;-0.43;83.39;99592.34;6209494;23;20001;-78
2022/12/12 05:24:43;;;;;;;0.00;0.00;;;;;;;-0.34;84.26;99620.63;6187101;23;20328;-79
2022/12/12 05:27:11;;;;;;;0.00;0.00;;;;;;;-0.31;83.66;99627.44;6159280;23;20015;-78
2022/12/12 05:29:41;;;;;;;0.10;0.10;;;;;;;-0.39;83.75;99631.19;6185901;23;20004;-80
2022/12/12 05:32:07;;;;;;;0.00;0.00;;;;;;;-0.46;84.43;99628.53;6206372;23;20071;-79
2022/12/12 05:34:32;;;;;;;0.00;0.00;;;;;;;-0.38;84.33;99630.13;6185080;23;20493;-80
2022/12/12 05:36:59;;;;;;;0.00;0.00;;;;;;;-0.40;84.28;99618.78;6133737;23;20498;-79
2022/12/12 05:39:25;;;;;;;0.00;0.00;;;;;;;-0.37;84.08;99624.53;6134932;23;20066;-81
2022/12/12 05:41:50;;;;;;;0.10;0.10;;;;;;;-0.34;83.52;99625.16;6209700;23;20016;-80
2022/12/12 05:44:15;;;;;;;0.00;0.00;;;;;;;-0.33;84.08;99630.31;6133956;23;20016;-78
2022/12/12 05:46:41;;;;;;;0.00;0.00;;;;;;;-0.38;84.33;99616.69;6158501;23;20012;-81
2022/12/12 05:49:06;;;;;;;0.00;0.00;;;;;;;-0.34;84.62;99623.28;6185802;23;20014;-79
2022/12/12 05:51:32;;;;;;;0.00;0.00;;;;;;;-0.35;84.40;99621.66;6153019;23;20024;-78
2022/12/12 05:53:57;;;;;;;0.00;0.00;;;;;;;-0.46;83.95;99619.66;6185396;23;20019;-80
2022/12/12 05:56:22;;;;;;;0.00;0.00;;;;;;;-0.53;84.34;99608.91;6130571;23;20289;-79
2022/12/12 05:58:48;;;;;;;0.00;0.00;;;;;;;-0.59;83.92;99621.34;6185038;23;20075;-81
2022/12/12 06:01:13;;;;;;;0.00;0.00;;;;;;;-0.72;84.18;99599.91;6183884;23;20067;-80
2022/12/12 06:03:39;;;;;;;0.10;0.10;;;;;;;-0.71;84.33;99612.31;6205603;23;20013;-80
2022/12/12 06:06:04;;;;;;;0.00;0.00;;;;;;;-0.70;84.34;99603.22;6211840;23;20079;-80
2022/12/12 06:08:30;;;;;;;0.10;0.10;;;;;;;-0.66;84.27;99620.53;6155866;23;20062;-80
2022/12/12 06:10:55;;;;;;;0.00;0.00;;;;;;;-0.69;84.07;99625.50;6185528;23;20012;-78
2022/12/12 06:13:21;;;;;;;0.10;0.10;;;;;;;-0.65;84.53;99627.56;6180594;23;20485;-82
2022/12/12 06:15:46;;;;;;;0.00;0.00;;;;;;;-0.66;85.18;99631.28;6159731;23;20379;-80
2022/12/12 06:18:11;;;;;;;0.00;0.00;;;;;;;-0.64;85.41;99639.97;6183637;23;20446;-82
2022/12/12 06:20:37;;;;;;;0.00;0.00;;;;;;;-0.74;84.41;99628.84;6213079;23;20051;-80
2022/12/12 06:23:03;;;;;;;0.00;0.00;;;;;;;-0.71;84.73;99639.16;6175658;23;20039;-80
2022/12/12 06:25:28;;;;;;;0.00;0.00;;;;;;;-0.72;84.54;99638.31;6175058;23;20380;-82
2022/12/12 06:27:55;;;;;;;0.03;0.03;;;;;;;-0.67;84.70;99644.91;6201736;23;20068;-79
2022/12/12 06:30:21;;;;;;;0.03;0.03;;;;;;;-0.71;84.06;99636.47;6175524;23;20039;-80
2022/12/12 06:32:46;;;;;;;0.00;0.00;;;;;;;-0.75;84.77;99632.56;6186067;23;20420;-80
2022/12/12 06:35:12;;;;;;;0.10;0.10;;;;;;;-0.76;84.53;99636.25;6188006;23;20091;-81
2022/12/12 06:37:38;;;;;;;0.00;0.00;;;;;;;-0.72;84.57;99648.25;6183095;23;20040;-80
2022/12/12 06:40:04;;;;;;;0.00;0.00;;;;;;;-0.71;84.92;99649.91;6165734;23;20079;-81
2022/12/12 06:42:30;;;;;;;0.00;0.00;;;;;;;-0.66;84.71;99644.69;6157475;23;20019;-81
2022/12/12 06:44:55;;;;;;;0.00;0.00;;;;;;;-0.62;84.85;99651.31;6211498;23;20423;-80
2022/12/12 06:47:21;;;;;;;0.00;0.00;;;;;;;-0.64;84.25;99650.69;6166113;23;20331;-79
2022/12/12 06:49:46;;;;;;;0.00;0.00;;;;;;;-0.73;84.60;99647.41;6173618;23;20016;-79
2022/12/12 06:52:14;;;;;;;0.00;0.00;;;;;;;-0.79;84.67;99628.63;6175435;23;20032;-79
2022/12/12 06:54:39;;;;;;;0.00;0.00;;;;;;;-0.65;84.62;99635.63;6172393;23;20038;-79
2022/12/12 06:57:05;;;;;;;0.00;0.00;;;;;;;-0.65;84.54;99632.13;6221112;23;20084;-81
2022/12/12 06:59:30;;;;;;;0.00;0.00;;;;;;;-0.74;84.63;99626.16;6169521;23;20343;-80
2022/12/12 07:01:56;;;;;;;0.00;0.00;;;;;;;-0.70;84.12;99635.44;6132640;23;20367;-80
2022/12/12 07:04:24;;;;;;;0.08;0.08;;;;;;;-0.76;84.87;99625.53;6189327;23;20013;-80
2022/12/12 07:06:53;;;;;;;0.00;0.00;;;;;;;-0.65;84.98;99641.00;6155229;23;20009;-78
2022/12/12 07:09:19;;;;;;;0.00;0.00;;;;;;;-0.66;84.81;99636.66;6159597;23;20013;-80
2022/12/12 07:11:47;;;;;;;0.00;0.00;;;;;;;-0.75;85.41;99613.75;6177367;23;20074;-78
2022/12/12 07:14:13;;;;;;;0.00;0.00;;;;;;;-0.75;84.52;99611.06;6181993;23;20005;-78
2022/12/12 07:16:38;;;;;;;0.00;0.00;;;;;;;-0.71;85.33;99613.13;6180055;23;20000;-78
2022/12/12 07:19:03;;;;;;;0.10;0.10;;;;;;;-0.78;84.16;99603.44;6208891;23;20080;-78
2022/12/12 07:21:29;;;;;;;0.10;0.10;;;;;;;-0.71;84.92;99612.31;6161191;23;20091;-80
2022/12/12 07:23:55;;;;;;;0.00;0.00;;;;;;;-0.61;85.46;99628.78;6179602;23;20070;-79
2022/12/12 07:26:22;;;;;;;0.00;0.00;;;;;;;-0.56;84.24;99637.03;6212474;23;20042;-80
2022/12/12 07:28:49;;;;;;;0.00;0.00;;;;;;;-0.51;84.19;99638.25;6156599;23;20012;-82
2022/12/12 07:31:18;;;;;;;0.00;0.00;;;;;;;-0.50;83.95;99631.84;6211198;23;20009;-78
2022/12/12 07:33:46;;;;;;;0.00;0.00;;;;;;;-0.43;85.06;99635.34;6210835;23;20356;-80
2022/12/12 07:36:14;;;;;;;0.10;0.10;;;;;;;-0.47;84.42;99634.09;6189058;23;20463;-84
2022/12/12 07:38:40;;;;;;;0.00;0.00;;;;;;;-0.46;84.21;99630.41;6189072;23;20011;-76
2022/12/12 07:41:11;;;;;;;0.00;0.00;;;;;;;-0.42;84.56;99650.44;6156067;23;20016;-77
2022/12/12 07:43:38;;;;;;;0.00;0.00;;;;;;;-0.51;83.85;99638.25;6184599;23;20013;-77
2022/12/12 07:46:08;;;;;;;0.00;0.00;;;;;;;-0.54;84.54;99634.97;6159751;23;20011;-83
2022/12/12 07:48:35;;;;;;;0.10;0.10;;;;;;;-0.47;84.07;99640.28;6220177;23;19993;-83
2022/12/12 07:51:01;;;;;;;0.00;0.00;;;;;;;-0.50;84.08;99632.66;6190812;23;20430;-83
2022/12/12 07:53:27;;;;;;;0.00;0.00;;;;;;;-0.54;84.06;99609.94;6162051;23;20012;-83
2022/12/12 07:55:53;;;;;;;0.00;0.00;;;;;;;-0.36;84.04;99628.88;6199732;23;20008;-81
2022/12/12 07:58:19;;;;;;;0.00;0.00;;;;;;;-0.34;84.55;99615.25;6186330;23;20029;-82
2022/12/12 08:00:44;;;;;;;0.00;0.00;;;;;;;-0.24;84.80;99610.22;6196395;23;20027;-77
2022/12/12 08:03:10;;;;;;;0.00;0.00;;;;;;;-0.22;83.89;99621.59;6155286;23;20016;-80
2022/12/12 08:05:41;;;;;;;0.10;0.10;;;;;;;-0.16;84.41;99625.28;6184831;23;20032;-75
2022/12/12 08:08:07;;;;;;;0.00;0.00;;;;;;;-0.10;84.57;99634.34;6176209;23;20003;-74
2022/12/12 08:10:33;;;;;;;0.00;0.00;;;;;;;-0.10;84.54;99628.97;6181319;23;20012;-74
2022/12/12 08:12:58;;;;;;;0.00;0.00;;;;;;;-0.11;84.11;99617.38;6155242;23;20335;-77
2022/12/12 08:15:34;;;;;;;0.08;0.08;;;;;;;-0.12;83.79;99621.13;6146444;23;20086;-79
2022/12/12 08:17:59;;;;;;;0.00;0.00;;;;;;;-0.06;83.51;99635.56;6183377;23;20059;-75
2022/12/12 08:20:34;;;;;;;0.00;0.00;;;;;;;-0.12;83.58;99628.38;6174820;23;20413;-75
2022/12/12 08:22:59;;;;;;;0.00;0.00;;;;;;;-0.26;83.98;99604.25;6183371;23;20016;-73
2022/12/12 08:25:30;;;;;;;0.10;0.10;;;;;;;-0.21;83.60;99614.34;6203456;23;20864;-75
2022/12/12 08:27:56;;;;;;;0.10;0.10;;;;;;;-0.10;84.54;99626.28;6207552;23;20008;-74
2022/12/12 08:30:23;;;;;;;0.00;0.00;;;;;;;-0.09;83.96;99625.25;6202489;23;20147;-75
2022/12/12 08:32:49;;;;;;;0.00;0.00;;;;;;;-0.02;83.63;99626.03;6180987;23;20001;-74
2022/12/12 08:35:14;;;;;;;0.00;0.00;;;;;;;0.01;83.26;99630.97;6182354;23;20102;-75
2022/12/12 08:37:40;;;;;;;0.00;0.00;;;;;;;-0.03;83.72;99619.00;6151450;23;20005;-75
2022/12/12 08:40:16;;;;;;;;;;;;;;;;;;;;;
2022/12/12 08:42:53;;;;;;;0.00;0.00;;;;;;;0.08;83.05;99631.75;6201623;23;20008;-74
2022/12/12 08:45:26;;;;;;;0.00;0.00;;;;;;;0.12;83.82;99621.41;6179870;23;20001;-75
2022/12/12 08:50:45;;;;;;;0.00;0.00;;;;;;;0.31;83.42;99630.38;6176093;23;20009;-74
2022/12/12 08:56:55;;;;;;;0.10;0.10;;;;;;;0.26;82.88;99628.31;6035988;23;20015;-75
2022/12/12 08:59:43;;;;;;;0.00;0.00;;;;;;;0.23;82.88;99628.75;6058737;23;20025;-74
2022/12/12 09:02:11;;;;;;;0.10;0.10;;;;;;;0.27;82.31;99631.84;6156250;23;20028;-74
2022/12/12 09:04:58;;;;;;;0.00;0.00;;;;;;;0.37;83.11;99640.25;6176649;23;20046;-74
2022/12/12 09:07:23;;;;;;;0.00;0.00;;;;;;;0.44;82.81;99641.03;6204315;23;20015;-73
2022/12/12 09:09:56;;;;;;;0.00;0.00;;;;;;;0.44;82.77;99627.59;6177973;23;20008;-74
2022/12/12 09:12:29;;;;;;;0.00;0.00;;;;;;;0.60;82.81;99641.50;6204455;23;20376;-74
2022/12/12 09:14:54;;;;;;;0.00;0.00;;;;;;;0.62;82.54;99647.50;6150547;23;20031;-74
2022/12/12 09:17:22;;;;;;;0.00;0.00;;;;;;;0.65;81.90;99647.88;6207202;23;20423;-74
2022/12/12 09:19:53;;;;;;;0.00;0.00;;;;;;;0.64;82.39;99650.78;6156084;23;20015;-74
2022/12/12 09:22:22;;;;;;;0.00;0.00;;;;;;;0.69;82.22;99653.66;6205177;23;20063;-75
2022/12/12 09:25:02;;;;;;;0.00;0.00;;;;;;;0.79;81.87;99648.59;6208782;23;20004;-75
2022/12/12 09:27:35;;;;;;;0.00;0.00;;;;;;;0.77;81.77;99653.38;6207015;23;20035;-74
2022/12/12 09:30:01;;;;;;;0.00;0.00;;;;;;;0.67;80.92;99656.56;6183067;23;20004;-74
2022/12/12 09:32:27;;;;;;;0.00;0.00;;;;;;;0.62;80.13;99658.28;6200688;23;20327;-75
2022/12/12 09:34:52;;;;;;;0.10;0.10;;;;;;;0.52;80.48;99642.63;6208254;23;20363;-75
2022/12/12 09:37:18;;;;;;;0.00;0.00;;;;;;;0.49;80.47;99641.19;6179706;23;20016;-74
2022/12/12 09:39:52;;;;;;;0.00;0.00;;;;;;;0.60;80.63;99647.75;6206855;23;20032;-73
2022/12/12 09:42:20;;;;;;;;;;;;;;;0.78;80.48;99663.09;6179335;23;20007;-73
2022/12/12 09:44:46;;;;;;;0.00;0.00;;;;;;;0.78;80.30;99656.91;6173212;23;19907;-73
2022/12/12 09:47:20;;;;;;;0.00;0.00;;;;;;;0.84;80.12;99645.25;6201990;23;20087;-74
2022/12/12 09:49:51;;;;;;;0.00;0.00;;;;;;;0.99;79.65;99658.34;6201062;23;20055;-73
2022/12/12 09:52:40;;;;;;;0.00;0.00;;;;;;;1.15;79.83;99662.34;6180863;23;20146;-74
2022/12/12 09:55:24;;;;;;;0.00;0.00;;;;;;;1.24;79.59;99665.56;6197940;23;20054;-74
2022/12/12 09:58:03;;;;;;;0.00;0.00;;;;;;;1.17;80.31;99647.63;6206856;23;20013;-74
2022/12/12 10:00:37;;;;;;;0.00;0.00;;;;;;;1.32;79.17;99646.44;6174474;23;20423;-75
2022/12/12 10:04:09;;;;;;;0.00;0.00;;;;;;;1.43;79.45;99659.16;6194593;23;20082;-74
2022/12/12 10:06:54;;;;;;;0.00;0.00;;;;;;;1.48;79.46;99645.81;6102920;23;20739;-74
2022/12/12 10:09:38;;;;;;;0.00;0.00;;;;;;;1.65;79.11;99640.66;6177331;23;20004;-74
2022/12/12 10:12:10;;;;;;;0.00;0.00;;;;;;;1.63;78.65;99615.78;6175225;23;20005;-74
2022/12/12 10:14:57;;;;;;;0.00;0.00;;;;;;;1.81;78.84;99639.22;6178132;23;20039;-76
2022/12/12 10:17:41;;;;;;;0.00;0.00;;;;;;;1.63;78.34;99612.28;6179330;23;20039;-74
2022/12/12 10:20:23;;;;;;;;;;;;;;;1.77;78.09;99627.22;6198552;23;20091;-76
2022/12/12 10:22:54;;;;;;;0.00;0.00;;;;;;;1.68;78.42;99617.78;6178541;23;19954;-75
2022/12/12 10:25:58;;;;;;;0.00;0.00;;;;;;;1.75;78.17;99623.91;6182209;23;20047;-75
2022/12/12 10:28:26;;;;;;;0.00;0.00;;;;;;;1.72;78.03;99619.00;6211285;23;19996;-74
2022/12/12 10:31:15;;;;;;;0.00;0.00;;;;;;;1.88;78.29;99641.81;6205630;23;20005;-74
2022/12/12 10:33:46;;;;;;;0.00;0.00;;;;;;;1.82;78.07;99640.03;6179732;23;20080;-75
2022/12/12 10:40:07;;;;;;;0.00;0.00;;;;;;;1.66;77.87;99631.50;6107988;23;20505;-75
2022/12/12 10:42:52;;;;;;;0.00;0.00;;;;;;;1.74;78.14;99633.09;6209367;23;20059;-74
2022/12/12 10:45:30;;;;;;;0.00;0.00;;;;;;;1.95;78.08;99641.72;6204534;23;19993;-74
2022/12/12 10:48:02;;;;;;;0.00;0.00;;;;;;;1.92;78.35;99624.94;6176387;23;20700;-74
2022/12/12 10:50:46;;;;;;;;;;;;;;;;;;;;;
2022/12/12 10:57:35;;;;;;;0.00;0.00;;;;;;;2.40;76.89;99614.28;6075675;23;20883;-75
2022/12/12 11:00:38;;;;;;;0.00;0.00;;;;;;;2.49;76.22;99618.28;6102268;23;20072;-76
2022/12/12 11:03:52;;;;;;;0.00;0.00;;;;;;;2.55;76.32;99628.16;6115729;23;20018;-74
2022/12/12 11:07:04;;;;;;;0.10;0.10;;;;;;;2.58;75.54;99622.28;6211904;23;20000;-77
2022/12/12 11:09:52;;;;;;;0.00;0.00;;;;;;;2.49;75.46;99610.19;6207655;23;20055;-75
2022/12/12 11:12:40;;;;;;;;;;;;;;;;;;;;;
2022/12/12 11:15:41;;;;;;;;;;;;;;;;;;;;;
2022/12/12 11:18:43;;;;;;;;;;;;;;;;;;;;;
2022/12/12 11:21:15;;;;;;;0.00;0.00;;;;;;;2.48;75.67;99611.25;6115616;23;20103;-75
2022/12/12 11:24:16;;;;;;;0.00;0.00;;;;;;;2.53;75.41;99592.47;6175339;23;20092;-76
2022/12/12 11:29:56;;;;;;;0.00;0.00;;;;;;;2.87;75.07;99608.09;6199142;23;20001;-74
2022/12/12 11:32:37;;;;;;;;;;;;;;;;;;;;;
2022/12/12 11:35:44;;;;;;;;;;;;;;;;;;;;;
2022/12/12 11:38:37;;;;;;;0.00;0.00;;;;;;;2.67;74.68;99576.88;6213720;23;20095;-74
2022/12/12 11:41:50;;;;;;;;;;;;;;;;;;;;;
2022/12/12 11:45:24;;;;;;;;;;;;;;;;;;;;;
2022/12/12 11:48:20;;;;;;;0.00;0.00;;;;;;;2.74;74.21;99550.56;6203400;23;20075;-76
2022/12/12 12:27:00;;;;;;;;;;;;;;;;;;;;;
2022/12/12 12:30:22;;;;;;;0.00;0.00;;;;;;;2.07;73.95;99545.47;6015416;23;20006;-75
2022/12/12 12:33:36;;;;;;;;;;;;;;;;;;;;;
2022/12/12 12:39:38;;;;;;;;;;;;;;;;;;;;;
2022/12/12 12:46:42;;;;;;;;;;;;;;;;;;;;;
2022/12/12 12:52:48;;;;;;;0.00;0.00;;;;;;;1.65;74.11;99527.47;5919201;24;20505;-76
2022/12/12 12:56:00;;;;;;;0.00;0.00;;;;;;;1.52;74.14;99535.69;5913382;24;20008;-77
2022/12/12 12:58:41;;;;;;;0.00;0.00;;;;;;;1.54;74.60;99545.22;6050457;23;20018;-77
2022/12/12 13:02:01;;;;;;;;;;;;;;;;;;;;;
2022/12/12 13:05:53;;;;;;;;;;;;;;;;;;;;;
2022/12/12 13:09:04;;;;;;;0.00;0.00;;;;;;;1.68;74.75;99539.63;6201410;23;20061;-76
2022/12/12 13:12:02;;;;;;;;;;;;;;;;;;;;;
2022/12/12 13:14:59;;;;;;;0.00;0.00;;;;;;;1.68;74.69;99501.91;6206670;23;20084;-75
2022/12/12 13:20:33;;;;;;;0.00;0.00;;;;;;;1.69;73.90;99508.94;6082426;23;20068;-75
2022/12/12 13:23:04;;;;;;;0.00;0.00;;;;;;;1.70;74.38;99518.69;6192770;23;20382;-74
2022/12/12 13:25:59;;;;;;;0.00;0.00;;;;;;;1.57;74.78;99498.94;6208146;23;20119;-74
2022/12/12 13:28:34;;;;;;;0.00;0.00;;;;;;;1.78;74.85;99523.72;6144468;23;19997;-77
2022/12/12 13:31:38;;;;;;;0.00;0.00;;;;;;;1.79;74.85;99525.38;6201299;23;21096;-76
2022/12/12 13:34:15;;;;;;;0.10;0.10;;;;;;;1.78;75.07;99498.66;6178875;23;20004;-77
2022/12/12 13:37:37;;;;;;;;;;;;;;;;;;;;;
2022/12/12 13:40:58;;;;;;;;;;;;;;;;;;;;;
2022/12/12 13:44:21;;;;;;;;;;;;;;;;;;;;;
2022/12/12 14:15:43;;;;;;;0.05;0.05;;;;;;;1.19;75.56;99524.31;5631710;25;20109;-77
2022/12/12 14:39:23;;;;;;;0.00;0.00;;;;;;;0.61;77.39;99511.31;6232313;23;20035;-76
2022/12/12 14:41:52;;;;;;;0.00;0.00;;;;;;;0.59;78.05;99525.00;6156754;23;20062;-77
2022/12/12 14:44:26;;;;;;;0.00;0.00;;;;;;;0.62;78.04;99531.81;6226354;23;20078;-77
2022/12/12 14:47:25;;;;;;;;;;;;;;;;;;;;;
2022/12/12 14:50:42;;;;;;;;;;;;;;;;;;;;;
2022/12/12 15:09:10;;;;;;;;;;;;;;;;;;;;;
2022/12/12 15:16:10;;;;;;;0.00;0.00;;;;;;;0.51;78.27;99568.31;5983311;24;20011;-76
2022/12/12 15:19:22;;;;;;;;;;;;;;;;;;;;;
2022/12/12 15:36:31;;;;;;;;;;;;;;;;;;;;;